Statue Of Liberty V — WDE7741 — position and weather

sailwx.info

Track history (hours):
 
Tides and Currents Weather Stations Pressure Air Temp Water Temp Dewpoint Dewpoint Depression Visibility Wind Speed Wind Dir Waves Ship Positions

Statue Of Liberty V

Owner: Statue Cruises LLC, Jersey Ciry, NJ. More information available from US FCC via Universal Licensing System and Coast Guard Vessel Documentation Center.

Last reported at 2018-Jan-01 07:32 UTC. Time now 2018-Feb-24 04:05 UTC.
Position N 40°43' W 074°02'.
Warning: this ship's position is 53 days out of date.

Length 45 m; draft 2.5 m.

Type: Passenger vessel. MMSI: 367397040.

Date/timePositionNaut miles runAvg speedWind from/ knotsBaromVisibWave heightAir tempDewpointWater temp
2018-Jan-01 07:32N 40°43' W 074°02'0 0.0
2018-Jan-01 07:30N 40°43' W 074°02'2 1.1
2018-Jan-01 05:52N 40°44' W 074°01'2 4.7
2018-Jan-01 05:30N 40°42' W 074°02'1 1.9
2018-Jan-01 05:01N 40°41' W 074°02'4 3.5
2018-Jan-01 04:00N 40°43' W 073°58'2 3.2
2018-Jan-01 03:24N 40°42' W 074°00'2 3.9
2018-Jan-01 03:01N 40°43' W 074°01'3 4.9
2018-Jan-01 02:27N 40°46' W 074°00'3 0.1
2017-Dec-30 22:43N 40°43' W 074°02'1 5.5
2017-Dec-30 22:30N 40°42' W 074°01'1 1.8
2017-Dec-30 21:56N 40°42' W 074°02'1 1.6
2017-Dec-30 21:30N 40°42' W 074°02'1 1.3
2017-Dec-30 21:00N 40°41' W 074°02'1 2.3
2017-Dec-30 20:30N 40°42' W 074°01'2 3.1
2017-Dec-30 20:00N 40°41' W 074°03'2 3.2
2017-Dec-30 19:30N 40°42' W 074°01'1 1.5
2017-Dec-30 18:47N 40°42' W 074°02'1 2.1
2017-Dec-30 18:30N 40°41' W 074°03'2 3.2
2017-Dec-30 18:00N 40°42' W 074°01'1 2.1
2017-Dec-30 17:30N 40°42' W 074°02'1 1.4
2017-Dec-30 17:00N 40°41' W 074°03'1 2.7
2017-Dec-30 16:30N 40°42' W 074°01'1 2.7
2017-Dec-30 16:00N 40°41' W 074°03'2 3.1
2017-Dec-30 15:30N 40°42' W 074°01'1 2.2
2017-Dec-30 15:00N 40°42' W 074°02'1 1.3
2017-Dec-30 14:30N 40°41' W 074°03'2 3.2
2017-Dec-30 14:00N 40°42' W 074°01'0 0.4
2017-Dec-30 13:30N 40°42' W 074°01'1 1.8
2017-Dec-30 13:00N 40°43' W 074°02'0 0.0
2017-Dec-29 22:42N 40°43' W 074°02'1 5.6
2017-Dec-29 22:31N 40°42' W 074°01'1 2.1
2017-Dec-29 22:00N 40°42' W 074°02'1 1.7
2017-Dec-29 21:31N 40°42' W 074°01'1 1.4
2017-Dec-29 21:00N 40°42' W 074°02'1 1.7
2017-Dec-29 20:30N 40°42' W 074°01'2 3.1
2017-Dec-29 20:00N 40°41' W 074°03'2 3.2
2017-Dec-29 19:30N 40°42' W 074°01'1 1.5
2017-Dec-29 18:47N 40°42' W 074°02'1 2.2
2017-Dec-29 18:30N 40°41' W 074°03'2 3.2
2017-Dec-29 18:01N 40°42' W 074°01'1 2.0
2017-Dec-29 17:30N 40°42' W 074°02'1 1.5
2017-Dec-29 17:01N 40°41' W 074°03'2 3.2
2017-Dec-29 16:31N 40°42' W 074°01'2 3.1
2017-Dec-29 16:00N 40°41' W 074°03'2 3.2
2017-Dec-29 15:30N 40°42' W 074°01'1 1.5
2017-Dec-29 14:48N 40°42' W 074°02'1 2.0
2017-Dec-29 14:29N 40°41' W 074°03'2 3.3
2017-Dec-29 14:00N 40°42' W 074°01'1 2.2
2017-Dec-29 13:31N 40°43' W 074°02'0 0.1
2017-Dec-29 13:01N 40°43' W 074°02'0 0.0
2017-Dec-29 12:31N 40°43' W 074°02'0 0.0
2017-Dec-29 12:01N 40°43' W 074°02'0 0.0
2017-Dec-29 11:31N 40°43' W 074°02'0 0.0
2017-Dec-29 11:00N 40°43' W 074°02'0 0.0
2017-Dec-29 10:30N 40°43' W 074°02'0 0.0
2017-Dec-28 22:41N 40°43' W 074°02'1 5.9
2017-Dec-28 22:30N 40°42' W 074°01'1 1.8
2017-Dec-28 21:55N 40°42' W 074°02'1 2.3
2017-Dec-28 21:30N 40°42' W 074°01'1 2.1
2017-Dec-28 21:00N 40°41' W 074°02'1 2.4
2017-Dec-28 20:30N 40°42' W 074°01'2 3.2
2017-Dec-28 20:00N 40°41' W 074°03'2 3.2
2017-Dec-28 19:30N 40°42' W 074°01'1 1.4
2017-Dec-28 18:47N 40°42' W 074°02'1 2.1
2017-Dec-28 18:30N 40°41' W 074°03'2 3.2
2017-Dec-28 18:00N 40°42' W 074°01'1 1.9
2017-Dec-28 17:27N 40°42' W 074°02'1 1.6
2017-Dec-28 17:00N 40°41' W 074°03'2 3.2
2017-Dec-28 16:30N 40°42' W 074°01'2 3.1
2017-Dec-28 16:00N 40°41' W 074°03'2 3.2
2017-Dec-28 15:30N 40°42' W 074°01'1 1.6
2017-Dec-28 14:51N 40°42' W 074°02'1 1.8
2017-Dec-28 14:30N 40°41' W 074°03'2 3.2
2017-Dec-28 14:00N 40°42' W 074°01'0 0.6
2017-Dec-28 13:30N 40°42' W 074°01'1 1.9
2017-Dec-28 13:00N 40°43' W 074°02'0 0.0
2017-Dec-28 12:30N 40°43' W 074°02'0 0.0
2017-Dec-27 22:43N 40°43' W 074°02'1 5.3
2017-Dec-27 22:30N 40°42' W 074°01'1 1.9
2017-Dec-27 21:57N 40°42' W 074°02'1 1.8
2017-Dec-27 21:30N 40°42' W 074°01'1 1.9
2017-Dec-27 21:00N 40°41' W 074°02'1 2.7
2017-Dec-27 20:30N 40°42' W 074°01'2 3.2
2017-Dec-27 20:00N 40°41' W 074°03'2 3.2
2017-Dec-27 19:30N 40°42' W 074°01'1 2.1
2017-Dec-27 19:00N 40°42' W 074°02'1 1.2
2017-Dec-27 18:30N 40°41' W 074°03'2 3.2
2017-Dec-27 18:00N 40°42' W 074°01'1 1.9
2017-Dec-27 17:27N 40°42' W 074°02'1 1.7
2017-Dec-27 17:00N 40°41' W 074°03'2 3.3
2017-Dec-27 16:30N 40°42' W 074°01'2 3.2
2017-Dec-27 16:00N 40°41' W 074°03'2 3.2
2017-Dec-27 15:30N 40°42' W 074°01'1 2.1
2017-Dec-27 15:00N 40°42' W 074°02'1 1.3
2017-Dec-27 14:30N 40°41' W 074°03'2 3.2
2017-Dec-27 14:00N 40°42' W 074°01'0 0.5
2017-Dec-27 13:30N 40°42' W 074°01'1 1.9
2017-Dec-27 13:00N 40°43' W 074°03'0 0.2
2017-Dec-27 12:30N 40°43' W 074°02'0 0.1
2017-Dec-27 12:00N 40°43' W 074°02'0 0.0
2017-Dec-27 11:30N 40°43' W 074°02'0 0.0
2017-Dec-27 11:00N 40°43' W 074°02'0 0.0
2017-Dec-26 22:44N 40°43' W 074°02'1 4.6
2017-Dec-26 22:30N 40°42' W 074°01'1 2.0
2017-Dec-26 22:00N 40°42' W 074°02'1 1.7
2017-Dec-26 21:30N 40°42' W 074°01'1 1.9
2017-Dec-26 21:00N 40°41' W 074°02'1 2.2
2017-Dec-26 20:30N 40°42' W 074°01'1 3.0
2017-Dec-26 20:00N 40°41' W 074°03'2 3.2
2017-Dec-26 19:30N 40°42' W 074°01'1 1.6
2017-Dec-26 18:51N 40°42' W 074°02'1 1.8
2017-Dec-26 18:30N 40°41' W 074°03'2 3.2
2017-Dec-26 18:00N 40°42' W 074°01'1 2.0
2017-Dec-26 17:28N 40°42' W 074°02'1 1.7
2017-Dec-26 17:00N 40°41' W 074°03'2 3.3
2017-Dec-26 16:30N 40°42' W 074°01'2 3.2
2017-Dec-26 16:00N 40°41' W 074°03'2 3.2
2017-Dec-26 15:30N 40°42' W 074°01'1 1.5
2017-Dec-26 14:49N 40°42' W 074°02'1 2.0
2017-Dec-26 14:30N 40°41' W 074°03'2 3.2
2017-Dec-26 14:00N 40°42' W 074°01'0 0.4
2017-Dec-26 13:30N 40°42' W 074°01'1 2.1
2017-Dec-26 13:00N 40°43' W 074°02'0 0.0
2017-Dec-26 12:30N 40°43' W 074°02'0 0.0
2017-Dec-26 12:00N 40°43' W 074°02'0 0.0
2017-Dec-26 11:30N 40°43' W 074°02'0 0.0
2017-Dec-26 11:00N 40°43' W 074°02'  
2017-Dec-23 22:43N 40°43' W 074°02'1 4.3
2017-Dec-23 22:30N 40°42' W 074°01'1 1.8
2017-Dec-23 22:00N 40°42' W 074°02'1 1.5
2017-Dec-23 21:30N 40°42' W 074°01'0 0.7
2017-Dec-23 21:00N 40°42' W 074°02'1 1.4
2017-Dec-23 20:30N 40°42' W 074°01'2 3.0
2017-Dec-23 20:00N 40°41' W 074°03'2 3.2
2017-Dec-23 19:30N 40°42' W 074°01'1 2.1
2017-Dec-23 19:00N 40°42' W 074°02'1 1.3
2017-Dec-23 18:30N 40°41' W 074°03'2 3.2
2017-Dec-23 18:00N 40°42' W 074°01'1 2.1
2017-Dec-23 17:30N 40°42' W 074°02'1 1.6
2017-Dec-23 17:00N 40°41' W 074°03'2 3.1
2017-Dec-23 16:30N 40°42' W 074°01'2 3.1
2017-Dec-23 16:00N 40°41' W 074°03'2 3.2
2017-Dec-23 15:30N 40°42' W 074°01'1 2.0
2017-Dec-23 14:59N 40°42' W 074°02'1 1.3
2017-Dec-23 14:30N 40°41' W 074°03'2 3.2
2017-Dec-23 14:00N 40°42' W 074°01'1 1.8
2017-Dec-23 13:30N 40°43' W 074°02'0 0.0
2017-Dec-22 22:42N 40°43' W 074°02'1 4.8
2017-Dec-22 22:30N 40°42' W 074°01'0 0.7
2017-Dec-22 22:00N 40°42' W 074°02'0 0.5
2017-Dec-22 21:30N 40°42' W 074°02'1 1.9
2017-Dec-22 21:00N 40°41' W 074°03'2 3.1
2017-Dec-22 20:30N 40°42' W 074°01'2 3.1
2017-Dec-22 20:00N 40°41' W 074°03'2 3.2
2017-Dec-22 19:31N 40°42' W 074°01'1 2.1
2017-Dec-22 19:01N 40°42' W 074°02'1 1.2
2017-Dec-22 18:31N 40°41' W 074°03'2 3.2
2017-Dec-22 18:01N 40°42' W 074°01'1 2.1
2017-Dec-22 17:30N 40°42' W 074°02'1 1.5
2017-Dec-22 17:01N 40°41' W 074°03'2 3.3
2017-Dec-22 16:31N 40°42' W 074°01'2 3.2
2017-Dec-22 16:01N 40°41' W 074°03'2 3.2
2017-Dec-22 15:30N 40°42' W 074°01'1 2.0
2017-Dec-22 15:00N 40°42' W 074°02'1 1.3
2017-Dec-22 14:31N 40°41' W 074°03'2 3.2
2017-Dec-22 14:00N 40°42' W 074°01'0 0.3
2017-Dec-22 13:31N 40°42' W 074°01'1 2.0
2017-Dec-22 13:00N 40°43' W 074°02'  
Track history (hours):
 
Tides and Currents Weather Stations Pressure Air Temp Water Temp Dewpoint Dewpoint Depression Visibility Wind Speed Wind Dir Waves Ship Positions

Statue Of Liberty V

Owner: Statue Cruises LLC, Jersey Ciry, NJ. More information available from US FCC via Universal Licensing System and Coast Guard Vessel Documentation Center.

Last reported at 2018-Jan-01 07:32 UTC. Time now 2018-Feb-24 04:05 UTC.
Position N 40°43' W 074°02'.
Warning: this ship's position is 53 days out of date.

Length 45 m; draft 2.5 m.

Type: Passenger vessel. MMSI: 367397040.

Date/timePositionNaut miles runAvg speedWind from/ knotsBaromVisibWave heightAir tempDewpointWater temp
2018-Jan-01 07:32N 40°43' W 074°02'0 0.0
2018-Jan-01 07:30N 40°43' W 074°02'2 1.1
2018-Jan-01 05:52N 40°44' W 074°01'2 4.7
2018-Jan-01 05:30N 40°42' W 074°02'1 1.9
2018-Jan-01 05:01N 40°41' W 074°02'4 3.5
2018-Jan-01 04:00N 40°43' W 073°58'2 3.2
2018-Jan-01 03:24N 40°42' W 074°00'2 3.9
2018-Jan-01 03:01N 40°43' W 074°01'3 4.9
2018-Jan-01 02:27N 40°46' W 074°00'3 0.1
2017-Dec-30 22:43N 40°43' W 074°02'1 5.5
2017-Dec-30 22:30N 40°42' W 074°01'1 1.8
2017-Dec-30 21:56N 40°42' W 074°02'1 1.6
2017-Dec-30 21:30N 40°42' W 074°02'1 1.3
2017-Dec-30 21:00N 40°41' W 074°02'1 2.3
2017-Dec-30 20:30N 40°42' W 074°01'2 3.1
2017-Dec-30 20:00N 40°41' W 074°03'2 3.2
2017-Dec-30 19:30N 40°42' W 074°01'1 1.5
2017-Dec-30 18:47N 40°42' W 074°02'1 2.1
2017-Dec-30 18:30N 40°41' W 074°03'2 3.2
2017-Dec-30 18:00N 40°42' W 074°01'1 2.1
2017-Dec-30 17:30N 40°42' W 074°02'1 1.4
2017-Dec-30 17:00N 40°41' W 074°03'1 2.7
2017-Dec-30 16:30N 40°42' W 074°01'1 2.7
2017-Dec-30 16:00N 40°41' W 074°03'2 3.1
2017-Dec-30 15:30N 40°42' W 074°01'1 2.2
2017-Dec-30 15:00N 40°42' W 074°02'1 1.3
2017-Dec-30 14:30N 40°41' W 074°03'2 3.2
2017-Dec-30 14:00N 40°42' W 074°01'0 0.4
2017-Dec-30 13:30N 40°42' W 074°01'1 1.8
2017-Dec-30 13:00N 40°43' W 074°02'0 0.0
2017-Dec-29 22:42N 40°43' W 074°02'1 5.6
2017-Dec-29 22:31N 40°42' W 074°01'1 2.1
2017-Dec-29 22:00N 40°42' W 074°02'1 1.7
2017-Dec-29 21:31N 40°42' W 074°01'1 1.4
2017-Dec-29 21:00N 40°42' W 074°02'1 1.7
2017-Dec-29 20:30N 40°42' W 074°01'2 3.1
2017-Dec-29 20:00N 40°41' W 074°03'2 3.2
2017-Dec-29 19:30N 40°42' W 074°01'1 1.5
2017-Dec-29 18:47N 40°42' W 074°02'1 2.2
2017-Dec-29 18:30N 40°41' W 074°03'2 3.2
2017-Dec-29 18:01N 40°42' W 074°01'1 2.0
2017-Dec-29 17:30N 40°42' W 074°02'1 1.5
2017-Dec-29 17:01N 40°41' W 074°03'2 3.2
2017-Dec-29 16:31N 40°42' W 074°01'2 3.1
2017-Dec-29 16:00N 40°41' W 074°03'2 3.2
2017-Dec-29 15:30N 40°42' W 074°01'1 1.5
2017-Dec-29 14:48N 40°42' W 074°02'1 2.0
2017-Dec-29 14:29N 40°41' W 074°03'2 3.3
2017-Dec-29 14:00N 40°42' W 074°01'1 2.2
2017-Dec-29 13:31N 40°43' W 074°02'0 0.1
2017-Dec-29 13:01N 40°43' W 074°02'0 0.0
2017-Dec-29 12:31N 40°43' W 074°02'0 0.0
2017-Dec-29 12:01N 40°43' W 074°02'0 0.0
2017-Dec-29 11:31N 40°43' W 074°02'0 0.0
2017-Dec-29 11:00N 40°43' W 074°02'0 0.0
2017-Dec-29 10:30N 40°43' W 074°02'0 0.0
2017-Dec-28 22:41N 40°43' W 074°02'1 5.9
2017-Dec-28 22:30N 40°42' W 074°01'1 1.8
2017-Dec-28 21:55N 40°42' W 074°02'1 2.3
2017-Dec-28 21:30N 40°42' W 074°01'1 2.1
2017-Dec-28 21:00N 40°41' W 074°02'1 2.4
2017-Dec-28 20:30N 40°42' W 074°01'2 3.2
2017-Dec-28 20:00N 40°41' W 074°03'2 3.2
2017-Dec-28 19:30N 40°42' W 074°01'1 1.4
2017-Dec-28 18:47N 40°42' W 074°02'1 2.1
2017-Dec-28 18:30N 40°41' W 074°03'2 3.2
2017-Dec-28 18:00N 40°42' W 074°01'1 1.9
2017-Dec-28 17:27N 40°42' W 074°02'1 1.6
2017-Dec-28 17:00N 40°41' W 074°03'2 3.2
2017-Dec-28 16:30N 40°42' W 074°01'2 3.1
2017-Dec-28 16:00N 40°41' W 074°03'2 3.2
2017-Dec-28 15:30N 40°42' W 074°01'1 1.6
2017-Dec-28 14:51N 40°42' W 074°02'1 1.8
2017-Dec-28 14:30N 40°41' W 074°03'2 3.2
2017-Dec-28 14:00N 40°42' W 074°01'0 0.6
2017-Dec-28 13:30N 40°42' W 074°01'1 1.9
2017-Dec-28 13:00N 40°43' W 074°02'0 0.0
2017-Dec-28 12:30N 40°43' W 074°02'0 0.0
2017-Dec-27 22:43N 40°43' W 074°02'1 5.3
2017-Dec-27 22:30N 40°42' W 074°01'1 1.9
2017-Dec-27 21:57N 40°42' W 074°02'1 1.8
2017-Dec-27 21:30N 40°42' W 074°01'1 1.9
2017-Dec-27 21:00N 40°41' W 074°02'1 2.7
2017-Dec-27 20:30N 40°42' W 074°01'2 3.2
2017-Dec-27 20:00N 40°41' W 074°03'2 3.2
2017-Dec-27 19:30N 40°42' W 074°01'1 2.1
2017-Dec-27 19:00N 40°42' W 074°02'1 1.2
2017-Dec-27 18:30N 40°41' W 074°03'2 3.2
2017-Dec-27 18:00N 40°42' W 074°01'1 1.9
2017-Dec-27 17:27N 40°42' W 074°02'1 1.7
2017-Dec-27 17:00N 40°41' W 074°03'2 3.3
2017-Dec-27 16:30N 40°42' W 074°01'2 3.2
2017-Dec-27 16:00N 40°41' W 074°03'2 3.2
2017-Dec-27 15:30N 40°42' W 074°01'1 2.1
2017-Dec-27 15:00N 40°42' W 074°02'1 1.3
2017-Dec-27 14:30N 40°41' W 074°03'2 3.2
2017-Dec-27 14:00N 40°42' W 074°01'0 0.5
2017-Dec-27 13:30N 40°42' W 074°01'1 1.9
2017-Dec-27 13:00N 40°43' W 074°03'0 0.2
2017-Dec-27 12:30N 40°43' W 074°02'0 0.1
2017-Dec-27 12:00N 40°43' W 074°02'0 0.0
2017-Dec-27 11:30N 40°43' W 074°02'0 0.0
2017-Dec-27 11:00N 40°43' W 074°02'0 0.0
2017-Dec-26 22:44N 40°43' W 074°02'1 4.6
2017-Dec-26 22:30N 40°42' W 074°01'1 2.0
2017-Dec-26 22:00N 40°42' W 074°02'1 1.7
2017-Dec-26 21:30N 40°42' W 074°01'1 1.9
2017-Dec-26 21:00N 40°41' W 074°02'1 2.2
2017-Dec-26 20:30N 40°42' W 074°01'1 3.0
2017-Dec-26 20:00N 40°41' W 074°03'2 3.2
2017-Dec-26 19:30N 40°42' W 074°01'1 1.6
2017-Dec-26 18:51N 40°42' W 074°02'1 1.8
2017-Dec-26 18:30N 40°41' W 074°03'2 3.2
2017-Dec-26 18:00N 40°42' W 074°01'1 2.0
2017-Dec-26 17:28N 40°42' W 074°02'1 1.7
2017-Dec-26 17:00N 40°41' W 074°03'2 3.3
2017-Dec-26 16:30N 40°42' W 074°01'2 3.2
2017-Dec-26 16:00N 40°41' W 074°03'2 3.2
2017-Dec-26 15:30N 40°42' W 074°01'1 1.5
2017-Dec-26 14:49N 40°42' W 074°02'1 2.0
2017-Dec-26 14:30N 40°41' W 074°03'2 3.2
2017-Dec-26 14:00N 40°42' W 074°01'0 0.4
2017-Dec-26 13:30N 40°42' W 074°01'1 2.1
2017-Dec-26 13:00N 40°43' W 074°02'0 0.0
2017-Dec-26 12:30N 40°43' W 074°02'0 0.0
2017-Dec-26 12:00N 40°43' W 074°02'0 0.0
2017-Dec-26 11:30N 40°43' W 074°02'0 0.0
2017-Dec-26 11:00N 40°43' W 074°02'  
2017-Dec-23 22:43N 40°43' W 074°02'1 4.3
2017-Dec-23 22:30N 40°42' W 074°01'1 1.8
2017-Dec-23 22:00N 40°42' W 074°02'1 1.5
2017-Dec-23 21:30N 40°42' W 074°01'0 0.7
2017-Dec-23 21:00N 40°42' W 074°02'1 1.4
2017-Dec-23 20:30N 40°42' W 074°01'2 3.0
2017-Dec-23 20:00N 40°41' W 074°03'2 3.2
2017-Dec-23 19:30N 40°42' W 074°01'1 2.1
2017-Dec-23 19:00N 40°42' W 074°02'1 1.3
2017-Dec-23 18:30N 40°41' W 074°03'2 3.2
2017-Dec-23 18:00N 40°42' W 074°01'1 2.1
2017-Dec-23 17:30N 40°42' W 074°02'1 1.6
2017-Dec-23 17:00N 40°41' W 074°03'2 3.1
2017-Dec-23 16:30N 40°42' W 074°01'2 3.1
2017-Dec-23 16:00N 40°41' W 074°03'2 3.2
2017-Dec-23 15:30N 40°42' W 074°01'1 2.0
2017-Dec-23 14:59N 40°42' W 074°02'1 1.3
2017-Dec-23 14:30N 40°41' W 074°03'2 3.2
2017-Dec-23 14:00N 40°42' W 074°01'1 1.8
2017-Dec-23 13:30N 40°43' W 074°02'0 0.0
2017-Dec-22 22:42N 40°43' W 074°02'1 4.8
2017-Dec-22 22:30N 40°42' W 074°01'0 0.7
2017-Dec-22 22:00N 40°42' W 074°02'0 0.5
2017-Dec-22 21:30N 40°42' W 074°02'1 1.9
2017-Dec-22 21:00N 40°41' W 074°03'2 3.1
2017-Dec-22 20:30N 40°42' W 074°01'2 3.1
2017-Dec-22 20:00N 40°41' W 074°03'2 3.2
2017-Dec-22 19:31N 40°42' W 074°01'1 2.1
2017-Dec-22 19:01N 40°42' W 074°02'1 1.2
2017-Dec-22 18:31N 40°41' W 074°03'2 3.2
2017-Dec-22 18:01N 40°42' W 074°01'1 2.1
2017-Dec-22 17:30N 40°42' W 074°02'1 1.5
2017-Dec-22 17:01N 40°41' W 074°03'2 3.3
2017-Dec-22 16:31N 40°42' W 074°01'2 3.2
2017-Dec-22 16:01N 40°41' W 074°03'2 3.2
2017-Dec-22 15:30N 40°42' W 074°01'1 2.0
2017-Dec-22 15:00N 40°42' W 074°02'1 1.3
2017-Dec-22 14:31N 40°41' W 074°03'2 3.2
2017-Dec-22 14:00N 40°42' W 074°01'0 0.3
2017-Dec-22 13:31N 40°42' W 074°01'1 2.0
2017-Dec-22 13:00N 40°43' W 074°02'  

Dump ship's entire track history